createdAt,value
2019-02-21T00:02:26.056Z,18.90
2019-02-21T00:05:04.561Z,17.02
2019-02-21T00:07:34.746Z,20.35
2019-02-21T00:10:05.751Z,16.70
2019-02-21T00:12:36.790Z,18.23
2019-02-21T00:15:07.779Z,21.77
2019-02-21T00:17:37.968Z,15.98
2019-02-21T00:20:10.339Z,16.30
2019-02-21T00:22:41.366Z,18.30
2019-02-21T00:25:11.525Z,18.52
2019-02-21T00:27:46.445Z,23.55
2019-02-21T00:30:16.657Z,21.40
2019-02-21T00:32:46.825Z,25.23
2019-02-21T00:35:18.366Z,17.10
2019-02-21T00:37:50.400Z,18.52
2019-02-21T00:40:20.882Z,16.75
2019-02-21T00:42:51.008Z,16.55
2019-02-21T00:45:23.458Z,21.93
2019-02-21T00:47:53.622Z,23.65
2019-02-21T00:50:24.104Z,21.68
2019-02-21T00:52:56.553Z,18.05
2019-02-21T00:55:28.476Z,20.27
2019-02-21T00:57:58.706Z,18.07
2019-02-21T01:00:28.842Z,18.87
2019-02-21T01:02:59.270Z,18.27
2019-02-21T01:05:33.993Z,16.87
2019-02-21T01:08:07.387Z,19.67
2019-02-21T01:10:40.603Z,22.93
2019-02-21T01:13:13.240Z,17.40
2019-02-21T01:15:44.950Z,21.05
2019-02-21T01:18:16.021Z,20.48
2019-02-21T01:20:46.654Z,16.10
2019-02-21T01:23:16.919Z,15.83
2019-02-21T01:25:48.165Z,16.23
2019-02-21T01:28:21.203Z,22.60
2019-02-21T01:30:57.046Z,21.20
2019-02-21T01:33:26.871Z,20.70
2019-02-21T01:35:57.099Z,16.77
2019-02-21T01:38:27.267Z,22.37
2019-02-21T01:40:57.466Z,20.65
2019-02-21T01:43:31.178Z,20.40
2019-02-21T01:46:03.053Z,16.25
2019-02-21T01:48:33.189Z,21.82
2019-02-21T01:51:03.340Z,20.43
2019-02-21T01:53:33.621Z,23.42
2019-02-21T01:56:03.759Z,22.10
2019-02-21T01:58:36.759Z,18.02
2019-02-21T02:01:08.793Z,17.10
2019-02-21T02:03:42.412Z,21.85
2019-02-21T02:06:12.299Z,26.35
2019-02-21T02:08:45.412Z,18.57
2019-02-21T02:11:15.537Z,21.77
2019-02-21T02:13:47.764Z,17.52
2019-02-21T02:16:19.162Z,22.77
2019-02-21T02:18:49.352Z,21.95
2019-02-21T02:21:21.255Z,18.92
2019-02-21T02:23:52.232Z,17.42
2019-02-21T02:26:23.595Z,18.57
2019-02-21T02:28:56.658Z,17.73
2019-02-21T02:31:31.624Z,18.75
2019-02-21T02:34:01.869Z,15.70
2019-02-21T02:36:32.023Z,16.30
2019-02-21T02:39:02.195Z,18.67
2019-02-21T02:41:32.730Z,19.82
2019-02-21T02:44:03.470Z,22.13
2019-02-21T02:46:33.610Z,22.82
2019-02-21T02:49:04.239Z,20.00
2019-02-21T02:51:36.791Z,20.75
2019-02-21T02:54:09.409Z,17.12
2019-02-21T02:56:39.550Z,22.25
2019-02-21T02:59:09.736Z,18.70
2019-02-21T03:01:39.901Z,21.07
2019-02-21T03:04:12.039Z,19.50
2019-02-21T03:06:44.694Z,19.77
2019-02-21T03:09:18.888Z,18.48
2019-02-21T03:11:51.909Z,19.87
2019-02-21T03:14:22.188Z,23.92
2019-02-21T03:16:55.232Z,20.02
2019-02-21T03:19:26.648Z,23.47
2019-02-21T03:21:56.804Z,23.83
2019-02-21T03:24:29.752Z,22.95
2019-02-21T03:27:02.203Z,18.25
2019-02-21T03:29:32.316Z,21.25
2019-02-21T03:32:05.668Z,21.77
2019-02-21T03:34:39.152Z,23.75
2019-02-21T03:37:09.313Z,18.42
2019-02-21T03:39:41.279Z,22.25
2019-02-21T03:42:11.582Z,19.70
2019-02-21T03:44:41.752Z,18.92
2019-02-21T03:47:17.515Z,20.60
2019-02-21T03:49:47.948Z,17.20
2019-02-21T03:52:20.585Z,19.45
2019-02-21T03:54:52.014Z,23.07
2019-02-21T03:57:23.771Z,17.75
2019-02-21T03:59:53.912Z,20.37
2019-02-21T04:02:25.729Z,19.98
2019-02-21T04:04:58.108Z,19.40
2019-02-21T04:07:28.407Z,22.45
2019-02-21T04:09:59.468Z,23.67
2019-02-21T04:12:29.613Z,20.77
2019-02-21T04:15:00.493Z,19.07
2019-02-21T04:17:30.788Z,22.02
2019-02-21T04:20:01.425Z,19.57
2019-02-21T04:22:32.255Z,28.10
2019-02-21T04:25:02.406Z,19.73
2019-02-21T04:27:36.534Z,20.82
2019-02-21T04:30:08.492Z,22.25
2019-02-21T04:32:40.025Z,19.45
2019-02-21T04:35:14.486Z,20.70
2019-02-21T04:37:45.019Z,21.07
2019-02-21T04:40:15.180Z,20.43
2019-02-21T04:42:45.376Z,20.97
2019-02-21T04:45:17.875Z,19.32
2019-02-21T04:47:49.268Z,23.12
2019-02-21T04:50:19.719Z,17.95
2019-02-21T04:52:52.188Z,20.30
2019-02-21T04:55:22.353Z,25.43
2019-02-21T04:57:53.318Z,20.12
2019-02-21T05:00:36.579Z,18.82
2019-02-21T05:03:07.051Z,18.10
2019-02-21T05:05:39.801Z,19.32
2019-02-21T05:08:09.967Z,21.35
2019-02-21T05:10:40.132Z,25.05
2019-02-21T05:13:11.541Z,22.73
2019-02-21T05:15:43.693Z,36.83
2019-02-21T05:18:16.854Z,28.35
2019-02-21T05:20:50.015Z,23.25
2019-02-21T05:23:21.018Z,19.00
2019-02-21T05:25:51.230Z,20.48
2019-02-21T05:28:25.564Z,31.95
2019-02-21T05:30:58.845Z,23.95
2019-02-21T05:33:46.347Z,20.85
2019-02-21T05:36:37.017Z,18.70
2019-02-21T05:39:27.043Z,18.98
2019-02-21T05:42:14.678Z,18.65
2019-02-21T05:45:04.126Z,17.30
2019-02-21T05:48:02.375Z,24.52
2019-02-21T05:50:52.564Z,20.40
2019-02-21T05:53:35.429Z,21.02
2019-02-21T05:56:24.547Z,18.35
2019-02-21T05:59:01.329Z,18.70
2019-02-21T06:01:53.289Z,17.70
2019-02-21T06:04:58.120Z,16.62
2019-02-21T06:07:59.296Z,15.60
2019-02-21T06:10:53.287Z,20.75
2019-02-21T06:13:44.721Z,21.73
2019-02-21T06:16:32.679Z,18.87
2019-02-21T06:19:20.757Z,17.70
2019-02-21T06:22:10.078Z,15.80
2019-02-21T06:24:54.114Z,15.70
2019-02-21T06:27:49.343Z,20.40
2019-02-21T06:30:43.231Z,20.92
2019-02-21T06:33:12.452Z,21.52
2019-02-21T06:35:42.616Z,18.77
2019-02-21T06:38:12.941Z,18.67
2019-02-21T06:40:43.098Z,19.07
2019-02-21T06:43:14.021Z,22.85
2019-02-21T06:45:44.197Z,18.60
2019-02-21T06:48:28.144Z,20.08
2019-02-21T06:50:59.096Z,22.00
2019-02-21T06:53:30.264Z,21.15
2019-02-21T06:56:00.426Z,19.37
2019-02-21T06:58:30.961Z,18.10
2019-02-21T07:01:01.327Z,21.95
2019-02-21T07:03:31.710Z,21.07
2019-02-21T07:06:01.925Z,23.52
2019-02-21T07:08:34.199Z,23.42
2019-02-21T07:11:06.424Z,21.65
2019-02-21T07:13:36.236Z,24.95
2019-02-21T07:16:06.798Z,21.02
2019-02-21T07:18:36.995Z,23.75
2019-02-21T07:21:08.934Z,24.52
2019-02-21T07:23:43.411Z,25.88
2019-02-21T07:26:13.866Z,25.77
2019-02-21T07:28:44.074Z,27.30
2019-02-21T07:31:14.976Z,19.37
2019-02-21T07:33:48.286Z,23.98
2019-02-21T07:36:17.819Z,21.52
2019-02-21T07:38:48.008Z,24.15
2019-02-21T07:41:18.811Z,29.72
2019-02-21T07:43:49.250Z,24.92
2019-02-21T07:46:19.442Z,29.02
2019-02-21T07:48:50.001Z,28.70
2019-02-21T07:51:20.187Z,22.45
2019-02-21T07:53:50.570Z,27.87
2019-02-21T07:56:20.744Z,39.13
2019-02-21T07:58:50.916Z,31.02
2019-02-21T08:01:21.097Z,24.18
2019-02-21T08:03:51.892Z,27.98
2019-02-21T08:06:25.112Z,24.47
2019-02-21T08:08:57.487Z,27.82
2019-02-21T08:11:27.769Z,28.90
2019-02-21T08:13:57.922Z,27.70
2019-02-21T08:16:28.067Z,38.08
2019-02-21T08:18:58.610Z,37.58
2019-02-21T08:21:29.328Z,29.52
2019-02-21T08:24:00.595Z,29.40
2019-02-21T08:26:30.790Z,34.92
2019-02-21T08:29:01.040Z,33.20
2019-02-21T08:31:35.154Z,35.40
2019-02-21T08:34:09.484Z,44.18
2019-02-21T08:36:39.743Z,45.23
2019-02-21T08:39:11.408Z,36.40
2019-02-21T08:41:41.539Z,28.02
2019-02-21T08:44:11.749Z,25.90
2019-02-21T08:46:42.014Z,25.92
2019-02-21T08:49:12.299Z,19.80
2019-02-21T08:51:42.431Z,22.27
2019-02-21T08:54:12.916Z,17.48
2019-02-21T08:56:43.219Z,19.90
2019-02-21T08:59:13.365Z,19.50
2019-02-21T09:01:44.007Z,18.17
2019-02-21T09:04:26.769Z,17.45
2019-02-21T09:06:46.087Z,18.23
2019-02-21T09:09:19.214Z,17.48
2019-02-21T09:11:49.406Z,19.55
2019-02-21T09:14:19.557Z,16.48
2019-02-21T09:16:49.712Z,18.67
2019-02-21T09:19:20.208Z,20.60
2019-02-21T09:21:53.330Z,20.70
2019-02-21T09:24:37.499Z,20.43
2019-02-21T09:26:54.575Z,14.23
2019-02-21T09:29:24.762Z,15.65
2019-02-21T09:31:54.959Z,21.85
2019-02-21T09:34:25.533Z,15.20
2019-02-21T09:36:55.731Z,12.73
2019-02-21T09:39:25.868Z,13.32
2019-02-21T09:41:56.042Z,14.03
2019-02-21T09:44:27.446Z,17.42
2019-02-21T09:46:57.927Z,21.12
2019-02-21T09:49:28.258Z,12.23
2019-02-21T09:51:58.406Z,13.80
2019-02-21T09:54:29.762Z,14.25
2019-02-21T09:56:59.906Z,15.78
2019-02-21T09:59:30.056Z,13.80
2019-02-21T10:02:00.599Z,14.45
2019-02-21T10:04:32.411Z,11.95
2019-02-21T10:07:03.153Z,15.03
2019-02-21T10:09:34.144Z,13.38
2019-02-21T10:12:04.351Z,11.40
2019-02-21T10:14:34.661Z,17.65
2019-02-21T10:17:05.312Z,16.42
2019-02-21T10:19:35.765Z,12.73
2019-02-21T10:22:06.581Z,11.70
2019-02-21T10:24:36.932Z,10.75
2019-02-21T10:27:07.108Z,13.03
2019-02-21T10:29:37.253Z,9.40
2019-02-21T10:32:07.587Z,14.50
2019-02-21T10:34:42.883Z,12.43
2019-02-21T10:37:10.835Z,10.75
2019-02-21T10:39:41.161Z,10.85
2019-02-21T10:42:11.420Z,10.18
2019-02-21T10:44:41.737Z,14.47
2019-02-21T10:47:12.249Z,10.93
2019-02-21T10:49:42.547Z,11.38
2019-02-21T10:52:12.807Z,17.57
2019-02-21T10:54:43.105Z,11.88
2019-02-21T10:57:13.238Z,13.48
2019-02-21T10:59:46.567Z,11.00
2019-02-21T11:02:16.494Z,12.82
2019-02-21T11:04:54.328Z,12.65
2019-02-21T11:07:18.725Z,10.13
2019-02-21T11:09:48.813Z,12.07
2019-02-21T11:12:19.430Z,16.70
2019-02-21T11:14:49.560Z,14.33
2019-02-21T11:17:20.996Z,9.75
2019-02-21T11:19:51.197Z,11.33
2019-02-21T11:22:23.226Z,11.70
2019-02-21T11:24:54.517Z,12.65
2019-02-21T11:27:24.711Z,14.45
2019-02-21T11:29:55.481Z,10.32
2019-02-21T11:32:26.265Z,11.15
2019-02-21T11:35:05.701Z,11.65
2019-02-21T11:37:30.649Z,10.53
2019-02-21T11:40:00.839Z,10.45
2019-02-21T11:42:31.006Z,17.77
2019-02-21T11:45:01.534Z,11.08
2019-02-21T11:47:31.685Z,14.93
2019-02-21T11:50:01.840Z,11.50
2019-02-21T11:52:32.576Z,9.45
2019-02-21T11:55:02.761Z,13.60
2019-02-21T11:57:32.937Z,11.88
2019-02-21T12:00:03.978Z,11.35
2019-02-21T12:02:38.819Z,11.12
2019-02-21T12:05:16.854Z,9.98
2019-02-21T12:07:38.582Z,9.28
2019-02-21T12:10:09.352Z,10.85
2019-02-21T12:12:39.690Z,11.60
2019-02-21T12:15:10.584Z,20.62
2019-02-21T12:17:42.665Z,17.52
2019-02-21T12:20:13.756Z,12.80
2019-02-21T12:22:43.963Z,12.30
2019-02-21T12:25:15.197Z,11.25
2019-02-21T12:27:45.441Z,10.82
2019-02-21T12:30:17.187Z,12.70
2019-02-21T12:32:49.099Z,10.13
2019-02-21T12:35:29.107Z,12.45
2019-02-21T12:37:51.146Z,10.80
2019-02-21T12:40:21.285Z,10.10
2019-02-21T12:42:51.630Z,11.38
2019-02-21T12:45:22.212Z,10.38
2019-02-21T12:47:54.133Z,10.35
2019-02-21T12:50:24.400Z,10.32
2019-02-21T12:52:54.594Z,15.05
2019-02-21T12:55:30.655Z,12.88
2019-02-21T12:57:58.341Z,11.70
2019-02-21T13:00:33.068Z,11.05
2019-02-21T13:03:03.351Z,13.98
2019-02-21T13:05:40.912Z,13.85
2019-02-21T13:08:05.350Z,13.08
2019-02-21T13:10:35.518Z,14.55
2019-02-21T13:13:05.648Z,17.85
2019-02-21T13:15:36.647Z,13.43
2019-02-21T13:18:15.327Z,17.87
2019-02-21T13:20:38.649Z,13.70
2019-02-21T13:23:08.896Z,11.30
2019-02-21T13:25:39.027Z,13.75
2019-02-21T13:28:09.164Z,16.30
2019-02-21T13:30:39.296Z,12.20
2019-02-21T13:33:09.575Z,12.78
2019-02-21T13:35:39.720Z,12.00
2019-02-21T13:38:09.883Z,12.60
2019-02-21T13:40:40.055Z,15.63
2019-02-21T13:43:10.302Z,11.65
2019-02-21T13:45:42.210Z,12.18
2019-02-21T13:48:12.374Z,10.70
2019-02-21T13:50:43.401Z,11.18
2019-02-21T13:53:16.359Z,17.37
2019-02-21T13:55:46.529Z,12.03
2019-02-21T13:58:18.239Z,14.70
2019-02-21T14:00:49.520Z,11.85
2019-02-21T14:03:19.681Z,12.63
2019-02-21T14:05:49.803Z,16.35
2019-02-21T14:08:20.403Z,16.42
2019-02-21T14:10:50.561Z,13.00
2019-02-21T14:13:20.899Z,12.10
2019-02-21T14:15:51.941Z,11.48
2019-02-21T14:18:24.414Z,12.80
2019-02-21T14:20:54.019Z,14.55
2019-02-21T14:23:24.764Z,10.98
2019-02-21T14:25:54.983Z,14.43
2019-02-21T14:28:25.181Z,12.73
2019-02-21T14:30:55.358Z,11.83
2019-02-21T14:33:25.515Z,12.23
2019-02-21T14:35:55.699Z,11.48
2019-02-21T14:38:28.217Z,9.55
2019-02-21T14:40:58.086Z,10.60
2019-02-21T14:43:28.228Z,11.22
2019-02-21T14:46:01.668Z,9.35
2019-02-21T14:48:35.923Z,10.63
2019-02-21T14:51:06.965Z,10.43
2019-02-21T14:53:40.026Z,14.53
2019-02-21T14:56:13.152Z,12.18
2019-02-21T14:58:46.429Z,10.00
2019-02-21T15:01:19.192Z,8.33
2019-02-21T15:03:50.510Z,8.18
2019-02-21T15:06:27.459Z,11.00
2019-02-21T15:08:58.213Z,11.25
2019-02-21T15:11:30.428Z,14.58
2019-02-21T15:14:04.354Z,17.15
2019-02-21T15:16:34.878Z,17.12
2019-02-21T15:19:06.207Z,17.98
2019-02-21T15:21:39.048Z,21.05
2019-02-21T15:24:09.211Z,19.37
2019-02-21T15:26:41.198Z,19.48
2019-02-21T15:29:13.296Z,18.12
2019-02-21T15:31:44.451Z,21.05
2019-02-21T15:34:14.598Z,23.62
2019-02-21T15:36:44.867Z,18.30
2019-02-21T15:39:15.029Z,17.92
2019-02-21T15:41:45.305Z,19.57
2019-02-21T15:44:20.184Z,12.80
2019-02-21T15:46:50.408Z,13.53
2019-02-21T15:49:21.499Z,16.40
2019-02-21T15:51:53.004Z,11.65
2019-02-21T15:54:23.595Z,12.03
2019-02-21T15:56:54.060Z,15.40
2019-02-21T15:59:53.872Z,11.45
2019-02-21T16:02:36.011Z,10.85
2019-02-21T16:05:13.959Z,10.08
2019-02-21T16:08:34.122Z,12.60
2019-02-21T16:11:20.204Z,13.65
2019-02-21T16:14:03.070Z,11.12
2019-02-21T16:16:43.626Z,12.68
2019-02-21T16:19:31.569Z,13.20
2019-02-21T16:25:38.916Z,13.70
2019-02-21T16:28:30.787Z,11.10
2019-02-21T16:31:27.966Z,16.27
2019-02-21T16:34:09.182Z,11.85
2019-02-21T16:36:44.822Z,13.40
2019-02-21T16:39:38.745Z,12.70
2019-02-21T16:42:16.023Z,7.50
2019-02-21T16:44:50.665Z,9.08
2019-02-21T16:47:25.112Z,14.85
2019-02-21T16:49:58.356Z,10.18
2019-02-21T16:52:30.427Z,7.80
2019-02-21T16:55:45.804Z,8.70
2019-02-21T17:01:48.134Z,7.62
2019-02-21T17:04:40.671Z,11.45
2019-02-21T17:07:17.379Z,8.65
2019-02-21T17:09:46.822Z,9.70
2019-02-21T17:12:19.440Z,11.03
2019-02-21T17:14:53.738Z,8.00
2019-02-21T17:17:27.541Z,11.53
2019-02-21T17:20:00.332Z,8.58
2019-02-21T17:22:30.928Z,8.30
2019-02-21T17:25:01.165Z,8.40
2019-02-21T17:27:32.571Z,10.18
2019-02-21T17:30:03.793Z,8.98
2019-02-21T17:32:37.087Z,8.60
2019-02-21T17:35:11.248Z,8.75
2019-02-21T17:37:41.459Z,13.83
2019-02-21T17:40:14.885Z,12.03
2019-02-21T17:42:45.097Z,7.83
2019-02-21T17:45:16.515Z,19.73
2019-02-21T17:47:47.168Z,15.13
2019-02-21T17:50:17.748Z,36.30
2019-02-21T17:52:50.935Z,10.63
2019-02-21T17:55:21.109Z,8.25
2019-02-21T17:57:53.636Z,6.25
2019-02-21T18:00:29.261Z,8.15
2019-02-21T18:03:01.695Z,8.35
2019-02-21T18:05:34.228Z,9.58
2019-02-21T18:08:05.335Z,10.82
2019-02-21T18:10:35.641Z,6.60
2019-02-21T18:13:06.268Z,11.57
2019-02-21T18:15:42.277Z,8.98
2019-02-21T18:18:13.079Z,11.50
2019-02-21T18:20:44.181Z,15.15
2019-02-21T18:23:15.236Z,15.95
2019-02-21T18:25:50.564Z,15.72
2019-02-21T18:28:23.347Z,13.83
2019-02-21T18:30:54.394Z,24.72
2019-02-21T18:33:26.754Z,16.93
2019-02-21T18:36:03.935Z,11.28
2019-02-21T18:38:38.420Z,7.50
2019-02-21T18:41:11.934Z,9.38
2019-02-21T18:43:43.352Z,15.05
2019-02-21T18:46:14.401Z,9.30
2019-02-21T18:48:45.261Z,11.75
2019-02-21T18:51:15.504Z,9.70
2019-02-21T18:53:49.741Z,8.08
2019-02-21T18:56:22.198Z,9.25
2019-02-21T18:58:52.544Z,10.82
2019-02-21T19:01:25.751Z,7.72
2019-02-21T19:03:58.479Z,6.83
2019-02-21T19:06:28.800Z,6.45
2019-02-21T19:09:01.757Z,8.20
2019-02-21T19:11:34.541Z,7.47
2019-02-21T19:14:09.166Z,11.90
2019-02-21T19:16:40.869Z,8.35
2019-02-21T19:19:11.022Z,12.43
2019-02-21T19:21:42.960Z,7.62
2019-02-21T19:24:14.779Z,12.93
2019-02-21T19:26:45.279Z,12.53
2019-02-21T19:29:15.458Z,16.57
2019-02-21T19:31:45.881Z,10.32
2019-02-21T19:34:20.825Z,10.28
2019-02-21T19:36:51.448Z,12.00
2019-02-21T19:39:24.214Z,10.20
2019-02-21T19:41:56.935Z,18.52
2019-02-21T19:44:28.298Z,18.67
2019-02-21T19:46:58.584Z,13.22
2019-02-21T19:49:28.737Z,15.95
2019-02-21T19:52:00.087Z,13.80
2019-02-21T19:54:38.308Z,10.15
2019-02-21T19:57:18.169Z,10.38
2019-02-21T19:59:48.535Z,9.63
2019-02-21T20:02:21.974Z,13.80
2019-02-21T20:04:53.353Z,15.38
2019-02-21T20:07:25.369Z,18.20
2019-02-21T20:09:55.869Z,15.15
2019-02-21T20:12:27.201Z,18.20
2019-02-21T20:15:04.226Z,18.37
2019-02-21T20:17:34.631Z,12.25
2019-02-21T20:20:06.338Z,17.20
2019-02-21T20:22:39.350Z,11.93
2019-02-21T20:25:12.422Z,12.18
2019-02-21T20:27:42.607Z,10.25
2019-02-21T20:30:14.685Z,10.35
2019-02-21T20:32:44.994Z,11.25
2019-02-21T20:35:15.472Z,13.98
2019-02-21T20:37:47.048Z,12.55
2019-02-21T20:40:19.567Z,11.48
2019-02-21T20:42:49.829Z,12.20
2019-02-21T20:45:25.646Z,14.60
2019-02-21T20:47:56.500Z,13.45
2019-02-21T20:50:29.393Z,19.77
2019-02-21T20:52:59.976Z,14.43
2019-02-21T20:55:31.661Z,12.88
2019-02-21T20:58:02.716Z,13.03
2019-02-21T21:00:33.719Z,16.95
2019-02-21T21:03:05.331Z,15.98
2019-02-21T21:05:35.790Z,12.58
2019-02-21T21:08:06.863Z,13.62
2019-02-21T21:10:37.030Z,14.63
2019-02-21T21:13:09.843Z,15.63
2019-02-21T21:15:42.796Z,15.25
2019-02-21T21:18:13.690Z,14.45
2019-02-21T21:20:51.174Z,17.85
2019-02-21T21:23:23.080Z,17.05
2019-02-21T21:25:55.704Z,16.35
2019-02-21T21:28:30.684Z,17.05
2019-02-21T21:31:03.628Z,17.57
2019-02-21T21:33:34.459Z,14.20
2019-02-21T21:36:04.651Z,14.38
2019-02-21T21:38:34.813Z,14.85
2019-02-21T21:41:06.969Z,11.48
2019-02-21T21:43:38.748Z,11.55
2019-02-21T21:46:10.829Z,10.20
2019-02-21T21:48:45.192Z,10.40
2019-02-21T21:51:17.969Z,11.68
2019-02-21T21:53:49.843Z,15.50
2019-02-21T21:56:21.668Z,12.25
2019-02-21T21:59:02.578Z,14.95
2019-02-21T22:01:32.850Z,13.05
2019-02-21T22:04:05.716Z,14.13
2019-02-21T22:06:37.439Z,11.75
2019-02-21T22:09:09.007Z,10.78
2019-02-21T22:11:39.557Z,15.68
2019-02-21T22:14:09.767Z,13.80
2019-02-21T22:16:41.880Z,16.93
2019-02-21T22:19:13.483Z,14.53
2019-02-21T22:21:45.650Z,15.40
2019-02-21T22:24:16.971Z,12.20
2019-02-21T22:26:49.039Z,14.35
2019-02-21T22:29:21.387Z,16.17
2019-02-21T22:31:53.499Z,14.18
2019-02-21T22:34:24.207Z,13.13
2019-02-21T22:36:56.274Z,15.05
2019-02-21T22:39:27.877Z,17.27
2019-02-21T22:41:59.756Z,14.25
2019-02-21T22:44:31.234Z,15.68
2019-02-21T22:47:01.375Z,14.00
2019-02-21T22:49:31.535Z,18.00
2019-02-21T22:52:02.435Z,15.48
2019-02-21T22:54:33.979Z,17.50
2019-02-21T22:57:04.086Z,16.73
2019-02-21T22:59:36.645Z,14.43
2019-02-21T23:02:09.489Z,15.90
2019-02-21T23:04:50.082Z,14.47
2019-02-21T23:07:28.954Z,16.93
2019-02-21T23:09:59.163Z,15.78
2019-02-21T23:12:29.549Z,18.60
2019-02-21T23:15:04.210Z,13.00
2019-02-21T23:17:38.346Z,15.15
2019-02-21T23:20:10.138Z,13.05
2019-02-21T23:22:42.387Z,17.77
2019-02-21T23:25:15.157Z,15.72
2019-02-21T23:28:05.326Z,12.65
2019-02-21T23:30:37.645Z,15.20
2019-02-21T23:33:07.856Z,10.85
2019-02-21T23:35:40.204Z,14.83
2019-02-21T23:38:11.232Z,9.43
2019-02-21T23:40:42.028Z,11.18
2019-02-21T23:43:21.739Z,15.60
2019-02-21T23:45:56.486Z,8.40
2019-02-21T23:48:26.861Z,9.80
2019-02-21T23:51:19.188Z,9.73
2019-02-21T23:53:50.530Z,10.15
2019-02-21T23:56:23.394Z,8.98
2019-02-21T23:58:54.201Z,9.53
